Time;durP1;ratioP1;P1;durP2;ratioP2;P2;SDS_P1;SDS_P2;PMS_P1;PMS_P2;Temp;Humidity;BMP_temperature;BMP_pressure;BME280_temperature;BME280_humidity;BME280_pressure;Samples;Min_cycle;Max_cycle;Signal;HPM_P1;HPM_P2
2022/08/10 00:01:43;;;;;;;0.43;0.43;;;;;;;23.40;38.78;101977.31;5217397;28;20984;-80
2022/08/10 00:04:13;;;;;;;0.40;0.40;;;;;;;23.38;38.64;101973.88;5232807;28;20033;-80
2022/08/10 00:06:44;;;;;;;0.30;0.30;;;;;;;23.33;38.65;101976.81;5222319;28;20048;-80
2022/08/10 00:09:14;;;;;;;0.20;0.20;;;;;;;23.33;39.50;101975.97;5222752;28;20062;-80
2022/08/10 00:11:45;;;;;;;0.40;0.40;;;;;;;23.29;38.74;101969.06;5235823;28;20040;-80
2022/08/10 00:14:15;;;;;;;0.47;0.47;;;;;;;23.23;39.37;101971.19;5209653;28;20032;-80
2022/08/10 00:16:46;;;;;;;0.25;0.25;;;;;;;23.19;38.96;101975.00;5202858;28;20052;-80
2022/08/10 00:19:17;;;;;;;0.20;0.20;;;;;;;23.15;39.75;101970.75;5206770;28;20058;-80
2022/08/10 00:21:48;;;;;;;0.90;0.77;;;;;;;23.11;39.70;101970.09;5208232;28;20570;-80
2022/08/10 00:24:18;;;;;;;0.55;0.55;;;;;;;23.09;39.21;101969.31;5204648;28;20052;-80
2022/08/10 00:26:49;;;;;;;0.30;0.30;;;;;;;23.07;39.92;101965.84;5224112;28;20036;-80
2022/08/10 00:29:19;;;;;;;0.40;0.40;;;;;;;23.05;39.82;101961.56;5197013;28;20059;-80
2022/08/10 00:31:50;;;;;;;0.30;0.30;;;;;;;23.04;39.28;101966.06;5239562;28;20620;-80
2022/08/10 00:34:20;;;;;;;0.45;0.45;;;;;;;23.01;39.98;101973.41;5218041;28;20087;-80
2022/08/10 00:36:51;;;;;;;0.20;0.20;;;;;;;22.97;40.13;101963.84;5235282;28;20040;-80
2022/08/10 00:39:21;;;;;;;0.25;0.25;;;;;;;22.92;41.01;101970.34;5217021;28;20024;-80
2022/08/10 00:41:52;;;;;;;0.80;0.43;;;;;;;;;;5240114;28;20068;-80
2022/08/10 00:44:23;;;;;;;0.50;0.50;;;;;;;22.87;40.88;101948.31;5211341;28;20127;-80
2022/08/10 00:46:54;;;;;;;0.57;0.57;;;;;;;22.84;40.74;101953.88;5211802;28;20044;-80
2022/08/10 00:49:26;;;;;;;0.43;0.43;;;;;;;22.82;40.81;101950.44;5207905;28;20012;-80
2022/08/10 00:51:57;;;;;;;0.40;0.40;;;;;;;22.83;39.72;101949.47;5262099;28;20024;-80
2022/08/10 00:54:28;;;;;;;0.20;0.20;;;;;;;22.81;40.11;101948.69;5226812;28;20069;-80
2022/08/10 00:56:59;;;;;;;0.22;0.22;;;;;;;22.77;40.66;101948.03;5206686;28;20099;-80
2022/08/10 00:59:33;;;;;;;0.30;0.30;;;;;;;22.75;40.59;101949.06;5218627;28;20040;-79
2022/08/10 01:02:04;;;;;;;0.28;0.28;;;;;;;22.71;40.74;101952.88;5232937;28;20073;-80
2022/08/10 01:04:34;;;;;;;0.40;0.40;;;;;;;22.69;40.22;101949.41;5228847;28;20388;-80
2022/08/10 01:07:38;;;;;;;0.55;0.55;;;;;;;22.64;40.28;101941.69;5207173;28;20041;-80
2022/08/10 01:10:12;;;;;;;0.17;0.17;;;;;;;22.59;40.78;101936.59;5199504;28;20132;-79
2022/08/10 01:12:55;;;;;;;0.20;0.20;;;;;;;22.55;40.95;101942.22;5190115;28;20037;-80
2022/08/10 01:15:31;;;;;;;0.50;0.50;;;;;;;22.51;41.24;101938.88;5231244;28;20749;-80
2022/08/10 01:18:09;;;;;;;0.32;0.32;;;;;;;22.51;40.86;101941.53;5212121;28;20174;-80
2022/08/10 01:21:16;;;;;;;0.20;0.20;;;;;;;22.45;41.07;101937.41;5240488;28;20276;-80
2022/08/10 01:24:07;;;;;;;0.40;0.40;;;;;;;22.43;40.93;101938.47;5207461;28;20483;-80
2022/08/10 01:27:14;;;;;;;0.20;0.20;;;;;;;22.40;41.23;101949.31;5205955;28;20061;-80
2022/08/10 01:30:04;;;;;;;0.55;0.55;;;;;;;22.38;41.11;101940.50;5197651;28;20046;-80
2022/08/10 01:32:46;;;;;;;0.55;0.55;;;;;;;22.35;40.80;101940.69;5220566;28;20014;-81
2022/08/10 01:35:28;;;;;;;0.20;0.20;;;;;;;22.29;41.18;101940.06;5183892;28;20052;-81
2022/08/10 01:38:22;;;;;;;0.32;0.32;;;;;;;22.27;41.72;101941.13;5223842;28;20093;-80
2022/08/10 01:41:11;;;;;;;0.45;0.45;;;;;;;22.22;41.66;101930.69;5206731;28;20044;-80
2022/08/10 01:43:45;;;;;;;0.20;0.20;;;;;;;22.21;41.22;101936.97;5203128;28;20516;-80
2022/08/10 01:46:18;;;;;;;0.45;0.45;;;;;;;22.19;41.92;101932.66;5198405;28;20047;-80
2022/08/10 01:48:54;;;;;;;0.30;0.30;;;;;;;22.16;41.37;101941.72;5195459;28;20087;-80
2022/08/10 01:51:49;;;;;;;0.20;0.20;;;;;;;22.15;41.04;101946.19;5220195;28;20037;-80
2022/08/10 01:54:23;;;;;;;0.20;0.20;;;;;;;22.12;41.77;101935.69;5196042;28;20490;-80
2022/08/10 01:56:55;;;;;;;0.30;0.30;;;;;;;22.10;41.69;101939.41;5205459;28;20045;-80
2022/08/10 01:59:35;;;;;;;0.30;0.30;;;;;;;22.06;42.23;101928.03;5196999;28;20098;-80
2022/08/10 02:02:14;;;;;;;0.47;0.40;;;;;;;22.05;42.12;101933.44;5219056;28;20033;-80
2022/08/10 02:04:47;;;;;;;0.73;0.60;;;;;;;22.04;42.43;101937.06;5221100;28;20119;-80
2022/08/10 02:07:23;;;;;;;0.30;0.30;;;;;;;22.00;42.17;101937.25;5217891;28;20056;-80
2022/08/10 02:09:57;;;;;;;0.30;0.30;;;;;;;21.99;43.01;101932.84;5228723;28;20037;-80
2022/08/10 02:12:32;;;;;;;0.30;0.30;;;;;;;21.97;42.85;101933.91;5217521;28;20057;-80
2022/08/10 02:15:09;;;;;;;0.47;0.47;;;;;;;21.93;42.59;101929.66;5169422;28;20127;-80
2022/08/10 02:17:44;;;;;;;0.60;0.60;;;;;;;21.92;42.56;101934.16;5213419;28;20041;-80
2022/08/10 02:20:20;;;;;;;0.55;0.55;;;;;;;21.90;42.60;101935.19;5197362;28;20064;-80
2022/08/10 02:22:55;;;;;;;0.40;0.40;;;;;;;21.87;42.46;101930.84;5204927;28;20033;-80
2022/08/10 02:25:27;;;;;;;0.60;0.60;;;;;;;21.83;42.77;101932.00;5214458;28;20037;-80
2022/08/10 02:27:59;;;;;;;0.50;0.50;;;;;;;21.80;42.96;101930.34;5225201;28;20044;-80
2022/08/10 02:30:30;;;;;;;0.45;0.45;;;;;;;21.76;43.13;101933.28;5181752;28;20036;-79
2022/08/10 02:33:03;;;;;;;0.47;0.47;;;;;;;21.74;42.70;101933.34;5211011;28;20041;-80
2022/08/10 02:35:36;;;;;;;0.40;0.40;;;;;;;21.73;42.03;101937.00;5178508;28;20044;-81
2022/08/10 02:38:10;;;;;;;0.50;0.50;;;;;;;21.68;42.86;101942.59;5170265;28;20037;-81
2022/08/10 02:40:45;;;;;;;0.43;0.30;;;;;;;21.65;43.13;101934.72;5178550;28;20566;-81
2022/08/10 02:43:33;;;;;;;0.20;0.20;;;;;;;21.62;42.93;101937.56;5173060;28;20033;-81
2022/08/10 02:46:10;;;;;;;0.20;0.20;;;;;;;21.57;42.78;101933.41;5188293;28;20262;-81
2022/08/10 02:48:45;;;;;;;0.68;0.63;;;;;;;21.54;43.76;101934.41;5201513;28;20021;-81
2022/08/10 02:51:29;;;;;;;1.05;0.95;;;;;;;21.52;42.99;101933.66;5188538;28;20045;-81
2022/08/10 02:54:10;;;;;;;0.43;0.43;;;;;;;21.47;43.15;101927.69;5199289;28;20429;-80
2022/08/10 02:56:50;;;;;;;0.60;0.60;;;;;;;21.44;43.35;101934.06;5214373;28;20178;-81
2022/08/10 02:59:28;;;;;;;0.43;0.43;;;;;;;21.41;43.67;101931.53;5206475;28;20259;-81
2022/08/10 03:02:05;;;;;;;0.30;0.30;;;;;;;21.39;43.41;101936.97;5221283;28;20055;-81
2022/08/10 03:04:41;;;;;;;0.20;0.20;;;;;;;21.37;42.81;101944.19;5194548;28;20033;-80
2022/08/10 03:07:21;;;;;;;0.30;0.30;;;;;;;21.33;43.47;101934.63;5185883;28;20044;-81
2022/08/10 03:09:53;;;;;;;0.20;0.20;;;;;;;21.33;42.76;101933.75;5200515;28;20036;-81
2022/08/10 03:12:26;;;;;;;0.40;0.40;;;;;;;21.29;43.28;101933.06;5202968;28;20036;-81
2022/08/10 03:14:58;;;;;;;0.50;0.50;;;;;;;21.26;43.59;101933.25;5241592;28;20020;-81
2022/08/10 03:17:30;;;;;;;0.20;0.20;;;;;;;21.25;44.11;101934.19;5219435;28;20131;-80
2022/08/10 03:20:02;;;;;;;0.45;0.45;;;;;;;21.21;43.53;101929.94;5212265;28;20029;-81
2022/08/10 03:22:34;;;;;;;0.50;0.50;;;;;;;21.20;43.56;101930.88;5187140;28;20120;-81
2022/08/10 03:25:07;;;;;;;0.30;0.30;;;;;;;21.16;44.37;101930.19;5210932;28;20453;-81
2022/08/10 03:27:39;;;;;;;1.58;0.45;;;;;;;21.13;44.71;101919.69;5207605;28;20060;-80
2022/08/10 03:30:11;;;;;;;0.40;0.40;;;;;;;21.12;44.49;101922.41;5224255;28;20045;-81
2022/08/10 03:32:43;;;;;;;0.38;0.38;;;;;;;21.09;45.07;101923.44;5219237;28;20037;-81
2022/08/10 03:35:15;;;;;;;0.45;0.40;;;;;;;21.07;45.10;101920.00;5264662;28;20036;-80
2022/08/10 03:37:48;;;;;;;0.20;0.20;;;;;;;21.05;44.77;101916.56;5219099;28;20013;-80
2022/08/10 03:40:19;;;;;;;3.00;1.15;;;;;;;21.03;44.77;101921.09;5208854;28;20028;-81
2022/08/10 03:42:52;;;;;;;0.55;0.55;;;;;;;21.00;44.08;101916.78;5204923;28;20036;-81
2022/08/10 03:45:26;;;;;;;0.20;0.20;;;;;;;20.98;44.91;101916.00;5221824;28;20036;-81
2022/08/10 03:47:57;;;;;;;0.30;0.30;;;;;;;20.96;44.09;101915.22;5244796;28;20033;-81
2022/08/10 03:50:29;;;;;;;5.75;0.50;;;;;;;20.93;44.57;101918.06;5217688;28;20143;-81
2022/08/10 03:53:00;;;;;;;0.30;0.30;;;;;;;20.90;45.34;101918.22;5223747;28;20033;-81
2022/08/10 03:55:33;;;;;;;0.40;0.40;;;;;;;20.88;43.81;101918.28;5220799;28;20070;-81
2022/08/10 03:58:04;;;;;;;0.40;0.40;;;;;;;20.86;44.90;101916.66;5236519;28;20429;-81
2022/08/10 04:00:36;;;;;;;0.30;0.30;;;;;;;20.83;44.75;101924.81;5189077;28;20444;-79
2022/08/10 04:03:11;;;;;;;0.30;0.30;;;;;;;20.82;44.52;101923.06;5251129;28;20021;-80
2022/08/10 04:05:41;;;;;;;1.88;0.85;;;;;;;20.79;44.23;101925.88;5244722;28;20063;-80
2022/08/10 04:08:13;;;;;;;0.63;0.63;;;;;;;20.77;44.21;101928.66;5201499;28;20327;-81
2022/08/10 04:10:44;;;;;;;0.20;0.20;;;;;;;20.75;44.54;101925.19;5235426;28;20097;-81
2022/08/10 04:13:14;;;;;;;0.30;0.30;;;;;;;20.71;45.24;101929.78;5217367;28;20028;-81
2022/08/10 04:15:45;;;;;;;0.73;0.73;;;;;;;20.68;45.59;101929.97;5211102;28;20345;-81
2022/08/10 04:18:16;;;;;;;0.47;0.47;;;;;;;20.69;44.99;101930.81;5215172;28;20032;-81
2022/08/10 04:20:57;;;;;;;0.40;0.32;;;;;;;20.68;44.39;101934.41;5206984;28;20557;-81
2022/08/10 04:23:32;;;;;;;0.30;0.30;;;;;;;20.63;45.20;101929.31;5220067;28;20045;-80
2022/08/10 04:26:10;;;;;;;0.20;0.20;;;;;;;20.61;45.53;101933.88;5214474;28;20048;-80
2022/08/10 04:28:42;;;;;;;0.20;0.20;;;;;;;20.56;45.43;101928.78;5189950;28;20085;-80
2022/08/10 04:31:15;;;;;;;1.02;0.65;;;;;;;20.56;45.63;101935.91;5225337;28;20037;-80
2022/08/10 04:33:49;;;;;;;0.75;0.75;;;;;;;20.53;45.36;101936.06;5191176;28;20081;-81
2022/08/10 04:36:22;;;;;;;0.50;0.50;;;;;;;20.51;45.45;101935.28;5209769;28;20036;-81
2022/08/10 04:38:57;;;;;;;1.85;0.50;;;;;;;20.50;45.46;101938.88;5240565;28;20040;-81
2022/08/10 04:41:28;;;;;;;0.55;0.55;;;;;;;20.47;46.10;101937.22;5206912;28;20129;-81
2022/08/10 04:43:59;;;;;;;0.40;0.40;;;;;;;20.45;45.99;101931.94;5220050;28;20517;-83
2022/08/10 04:46:29;;;;;;;0.47;0.47;;;;;;;20.43;45.96;101925.84;5222397;28;20045;-81
2022/08/10 04:49:00;;;;;;;0.45;0.45;;;;;;;20.41;45.57;101926.88;5239845;28;20450;-80
2022/08/10 04:51:30;;;;;;;0.60;0.60;;;;;;;20.40;45.60;101931.31;5229440;28;20028;-81
2022/08/10 04:54:04;;;;;;;0.30;0.30;;;;;;;20.39;45.35;101934.94;5226265;28;20079;-80
2022/08/10 04:56:38;;;;;;;0.40;0.38;;;;;;;20.37;46.12;101928.81;5202250;28;20033;-81
2022/08/10 04:59:10;;;;;;;0.75;0.75;;;;;;;20.36;45.85;101928.88;5234918;28;20040;-82
2022/08/10 05:01:41;;;;;;;0.57;0.57;;;;;;;20.36;45.07;101934.22;5233011;28;20136;-80
2022/08/10 05:04:11;;;;;;;0.43;0.43;;;;;;;20.34;45.70;101936.09;5218481;28;20064;-82
2022/08/10 05:06:44;;;;;;;0.22;0.22;;;;;;;20.31;46.71;101930.94;5219232;28;20037;-81
2022/08/10 05:09:15;;;;;;;0.40;0.40;;;;;;;20.30;45.82;101938.03;5215912;28;20404;-80
2022/08/10 05:11:45;;;;;;;0.20;0.20;;;;;;;20.31;46.07;101936.25;5217757;28;20097;-81
2022/08/10 05:14:16;;;;;;;0.25;0.25;;;;;;;20.29;46.16;101938.97;5196878;28;20025;-79
2022/08/10 05:16:47;;;;;;;0.50;0.50;;;;;;;20.29;46.66;101937.19;5192315;28;20060;-78
2022/08/10 05:19:17;;;;;;;0.20;0.20;;;;;;;20.29;46.70;101945.19;5199595;28;20424;-78
2022/08/10 05:21:48;;;;;;;1.05;0.95;;;;;;;20.27;46.07;101947.06;5169842;28;20036;-79
2022/08/10 05:24:18;;;;;;;0.65;0.47;;;;;;;20.27;46.20;101946.22;5202250;28;20071;-79
2022/08/10 05:26:49;;;;;;;0.63;0.63;;;;;;;20.26;46.31;101941.81;5195323;28;20067;-79
2022/08/10 05:29:19;;;;;;;0.25;0.25;;;;;;;20.28;46.39;101943.47;5200038;28;20109;-79
2022/08/10 05:31:50;;;;;;;0.45;0.45;;;;;;;20.24;47.13;101949.91;5209962;28;20589;-79
2022/08/10 05:34:25;;;;;;;0.73;0.73;;;;;;;20.27;46.21;101951.53;5186026;28;20425;-79
2022/08/10 05:36:57;;;;;;;0.60;0.60;;;;;;;20.24;46.93;101951.69;5196272;28;20038;-79
2022/08/10 05:39:28;;;;;;;0.88;0.80;;;;;;;20.24;46.51;101951.69;5206153;28;20036;-79
2022/08/10 05:42:01;;;;;;;0.73;0.73;;;;;;;20.24;46.88;101951.69;5202324;28;20095;-79
2022/08/10 05:44:32;;;;;;;;;;;;;;;20.24;46.69;101957.00;5185529;28;20094;-79
2022/08/10 05:47:04;;;;;;;0.30;0.30;;;;;;;20.25;46.27;101948.94;5189354;28;20007;-80
2022/08/10 05:49:38;;;;;;;0.75;0.73;;;;;;;20.28;45.90;101950.59;5184366;28;20090;-79
2022/08/10 05:52:10;;;;;;;0.40;0.40;;;;;;;20.25;46.41;101953.41;5192590;28;20042;-79
2022/08/10 05:54:42;;;;;;;1.13;1.05;;;;;;;20.27;46.54;101948.88;5148026;28;20602;-79
2022/08/10 05:57:15;;;;;;;0.30;0.30;;;;;;;20.31;46.31;101957.59;5168768;28;20095;-80
2022/08/10 05:59:56;;;;;;;0.32;0.32;;;;;;;20.34;46.41;101952.97;5188716;28;20061;-80
2022/08/10 06:02:35;;;;;;;0.30;0.30;;;;;;;20.39;46.07;101950.91;5184738;28;20553;-79
2022/08/10 06:05:29;;;;;;;0.52;0.52;;;;;;;20.41;46.31;101957.06;5167986;28;20364;-80
2022/08/10 06:08:22;;;;;;;0.60;0.60;;;;;;;20.44;47.74;101954.25;5175936;28;20052;-80
2022/08/10 06:10:55;;;;;;;0.50;0.50;;;;;;;20.53;46.70;101952.91;5212475;28;20041;-79
2022/08/10 06:16:20;;;;;;;0.30;0.30;;;;;;;20.59;46.54;101957.09;5182065;28;20147;-80
2022/08/10 06:18:51;;;;;;;0.40;0.40;;;;;;;20.60;46.77;101961.47;5203989;28;20659;-80
2022/08/10 06:21:22;;;;;;;0.30;0.30;;;;;;;20.60;46.84;101964.16;5194888;28;20036;-79
2022/08/10 06:23:54;;;;;;;0.50;0.50;;;;;;;20.63;46.77;101963.97;5203057;28;20029;-79
2022/08/10 06:26:24;;;;;;;0.70;0.70;;;;;;;20.65;46.92;101956.75;5166442;28;20041;-79
2022/08/10 06:29:05;;;;;;;0.38;0.38;;;;;;;20.68;46.94;101956.63;5181865;28;20029;-80
2022/08/10 06:31:42;;;;;;;0.47;0.47;;;;;;;20.69;46.95;101957.47;5180189;28;20464;-80
2022/08/10 06:34:21;;;;;;;0.60;0.60;;;;;;;20.68;48.24;101953.97;5204188;28;20037;-80
2022/08/10 06:36:55;;;;;;;0.32;0.32;;;;;;;20.72;46.65;101960.84;5182445;28;20052;-81
2022/08/10 06:39:27;;;;;;;0.30;0.30;;;;;;;20.78;49.32;101956.19;5220638;28;20048;-79
2022/08/10 06:42:16;;;;;;;0.68;0.68;;;;;;;20.83;47.21;101962.16;5229477;28;20033;-81
2022/08/10 06:44:57;;;;;;;0.93;0.55;;;;;;;20.83;47.17;101959.47;5198532;28;20084;-80
2022/08/10 06:47:45;;;;;;;0.50;0.50;;;;;;;20.84;47.84;101955.88;5207448;28;20120;-80
2022/08/10 06:50:21;;;;;;;0.50;0.50;;;;;;;20.84;48.96;101961.22;5212107;28;20037;-80
2022/08/10 06:52:54;;;;;;;0.40;0.40;;;;;;;20.88;48.69;101963.66;5198617;28;20029;-80
2022/08/10 06:55:26;;;;;;;0.20;0.20;;;;;;;20.87;49.16;101961.03;5206683;28;20025;-80
2022/08/10 06:57:59;;;;;;;0.32;0.32;;;;;;;20.94;48.00;101965.16;5193476;28;20414;-79
2022/08/10 07:00:32;;;;;;;0.50;0.50;;;;;;;21.02;47.88;101962.06;5215128;28;20041;-80
2022/08/10 07:03:05;;;;;;;;;;;;;;;21.09;47.88;101959.94;5183210;28;20041;-80
2022/08/10 07:05:47;;;;;;;0.52;0.52;;;;;;;21.06;47.46;101956.50;5202726;28;20012;-79
2022/08/10 07:08:21;;;;;;;1.95;0.95;;;;;;;21.16;47.79;101966.69;5207224;28;20025;-81
2022/08/10 07:10:55;;;;;;;0.43;0.40;;;;;;;21.18;47.58;101959.47;5169458;28;20040;-79
2022/08/10 07:13:28;;;;;;;0.68;0.68;;;;;;;21.22;47.58;101959.22;5184267;28;20029;-79
2022/08/10 07:16:00;;;;;;;0.50;0.50;;;;;;;21.23;47.61;101973.44;5213476;28;20045;-79
2022/08/10 07:18:32;;;;;;;0.52;0.52;;;;;;;21.25;47.25;101963.53;5199274;28;20039;-79
2022/08/10 07:21:08;;;;;;;2.08;1.88;;;;;;;21.30;46.85;101961.47;5205261;28;20127;-79
2022/08/10 07:23:44;;;;;;;0.40;0.40;;;;;;;21.36;47.35;101960.28;5197421;28;20102;-79
2022/08/10 07:26:18;;;;;;;0.35;0.35;;;;;;;21.34;47.20;101955.06;5213675;28;20053;-79
2022/08/10 07:28:52;;;;;;;0.93;0.93;;;;;;;21.41;46.77;101954.72;5182093;28;20087;-80
2022/08/10 07:31:27;;;;;;;1.08;0.52;;;;;;;21.48;46.94;101957.00;5165342;28;20038;-79
2022/08/10 07:33:59;;;;;;;0.40;0.40;;;;;;;21.55;46.97;101965.50;5187948;28;20136;-81
2022/08/10 07:36:30;;;;;;;0.60;0.60;;;;;;;21.56;47.76;101974.41;5187596;28;20068;-80
2022/08/10 07:39:03;;;;;;;0.32;0.32;;;;;;;21.51;47.30;101972.81;5224175;28;20043;-82
2022/08/10 07:41:39;;;;;;;0.55;0.55;;;;;;;21.61;47.06;101967.88;5178183;28;20041;-81
2022/08/10 07:44:11;;;;;;;0.95;0.57;;;;;;;21.61;46.88;101967.88;5194092;28;20032;-81
2022/08/10 07:46:48;;;;;;;0.55;0.55;;;;;;;21.66;46.94;101970.28;5207897;28;20433;-81
2022/08/10 07:49:24;;;;;;;0.30;0.30;;;;;;;21.67;46.38;101972.91;5206022;28;20033;-80
2022/08/10 07:51:56;;;;;;;0.68;0.68;;;;;;;21.67;46.42;101975.56;5195230;28;20037;-80
2022/08/10 07:54:29;;;;;;;0.35;0.35;;;;;;;21.74;46.38;101977.91;5202515;28;20032;-81
2022/08/10 07:57:03;;;;;;;1.48;1.38;;;;;;;21.75;46.31;101974.28;5206255;28;20053;-80
2022/08/10 07:59:41;;;;;;;0.45;0.45;;;;;;;21.87;46.00;101973.59;5185768;28;20087;-81
2022/08/10 08:02:19;;;;;;;0.40;0.40;;;;;;;21.88;46.30;101972.66;5198761;28;20090;-80
2022/08/10 08:04:56;;;;;;;0.68;0.68;;;;;;;21.81;46.89;101974.84;5210385;28;20569;-81
2022/08/10 08:07:27;;;;;;;0.50;0.50;;;;;;;21.91;46.08;101980.53;5190605;28;20041;-80
2022/08/10 08:10:00;;;;;;;0.32;0.32;;;;;;;21.91;46.39;101988.53;5209276;28;20059;-81
2022/08/10 08:12:33;;;;;;;0.73;0.73;;;;;;;21.98;45.92;101986.41;5180393;28;20108;-80
2022/08/10 08:15:11;;;;;;;0.32;0.32;;;;;;;22.00;46.05;101989.81;5193603;28;20403;-80
2022/08/10 08:17:42;;;;;;;0.20;0.20;;;;;;;22.08;45.76;101990.25;5200068;28;20076;-81
2022/08/10 08:20:16;;;;;;;2.05;1.60;;;;;;;22.10;45.93;101982.19;5227608;28;20510;-80
2022/08/10 08:22:48;;;;;;;0.20;0.20;;;;;;;22.27;45.24;101987.41;5201299;28;20017;-79
2022/08/10 08:25:20;;;;;;;0.55;0.50;;;;;;;22.25;45.43;101988.44;5224542;28;20041;-80
2022/08/10 08:27:52;;;;;;;0.80;0.80;;;;;;;22.25;45.46;101986.66;5171356;28;20367;-79
2022/08/10 08:30:23;;;;;;;0.43;0.43;;;;;;;22.25;45.53;101983.97;5180639;28;20029;-79
2022/08/10 08:32:55;;;;;;;0.20;0.20;;;;;;;22.36;44.83;101979.81;5192644;28;20490;-80
2022/08/10 08:35:26;;;;;;;5.90;1.55;;;;;;;22.37;44.93;101990.44;5199365;28;20021;-79
2022/08/10 08:37:59;;;;;;;0.40;0.40;;;;;;;22.44;45.15;101977.59;5210667;28;20104;-80
2022/08/10 08:40:36;;;;;;;0.43;0.43;;;;;;;22.55;44.71;101977.84;5196885;28;20032;-80
2022/08/10 08:43:29;;;;;;;1.67;1.13;;;;;;;22.48;45.31;101973.81;5178933;28;20030;-80
2022/08/10 08:46:00;;;;;;;;;;;;;;;22.54;45.08;101973.44;5174745;28;20049;-80
2022/08/10 08:49:08;;;;;;;0.43;0.40;;;;;;;22.64;44.96;101971.13;5178425;28;19913;-80
2022/08/10 08:51:53;;;;;;;0.40;0.40;;;;;;;22.70;44.61;101967.19;5176748;28;20076;-79
2022/08/10 08:54:42;;;;;;;0.43;0.43;;;;;;;22.79;43.94;101962.19;5221115;28;20033;-80
2022/08/10 08:57:39;;;;;;;0.60;0.60;;;;;;;22.82;43.88;101966.47;5214061;28;20045;-81
2022/08/10 09:00:19;;;;;;;0.40;0.40;;;;;;;22.87;43.67;101959.03;5183110;28;20091;-81
2022/08/10 09:03:25;;;;;;;0.40;0.40;;;;;;;22.95;43.57;101961.25;5188398;28;20053;-81
2022/08/10 09:06:24;;;;;;;0.43;0.43;;;;;;;22.98;43.98;101957.53;5208838;28;20037;-81
2022/08/10 09:09:08;;;;;;;0.60;0.60;;;;;;;23.00;43.46;101958.31;5224536;28;20037;-81
2022/08/10 09:12:16;;;;;;;1.85;0.75;;;;;;;22.99;43.35;101952.06;5178806;28;20054;-81
2022/08/10 09:14:51;;;;;;;1.23;0.73;;;;;;;23.09;43.51;101939.88;5188418;28;20128;-81
2022/08/10 09:17:30;;;;;;;0.30;0.30;;;;;;;23.21;43.30;101940.97;5197208;28;20057;-81
2022/08/10 09:20:08;;;;;;;0.50;0.50;;;;;;;23.23;43.21;101936.38;5195608;28;20117;-82
2022/08/10 09:22:50;;;;;;;0.68;0.55;;;;;;;23.21;43.54;101940.97;5197998;28;20045;-81
2022/08/10 09:25:33;;;;;;;0.85;0.82;;;;;;;23.30;43.14;101944.91;5191341;28;20125;-81
2022/08/10 09:28:24;;;;;;;1.67;1.43;;;;;;;23.37;43.34;101940.00;5201186;28;20033;-81
2022/08/10 09:31:06;;;;;;;0.30;0.30;;;;;;;23.45;42.68;101934.19;5190062;28;20351;-81
2022/08/10 09:34:07;;;;;;;0.50;0.50;;;;;;;23.44;42.73;101930.63;5184370;28;20031;-82
2022/08/10 09:37:03;;;;;;;0.20;0.20;;;;;;;23.47;42.77;101922.41;5189677;28;20163;-81
2022/08/10 09:39:47;;;;;;;0.55;0.55;;;;;;;23.57;41.97;101931.59;5188269;28;20442;-81
2022/08/10 09:42:34;;;;;;;0.20;0.20;;;;;;;23.64;41.55;101920.50;5181699;28;20073;-81
2022/08/10 09:45:15;;;;;;;0.40;0.40;;;;;;;23.80;41.39;101926.59;5197052;28;20808;-81
2022/08/10 09:48:15;;;;;;;0.30;0.30;;;;;;;23.67;40.85;101925.66;5175931;28;20646;-80
2022/08/10 09:51:15;;;;;;;0.50;0.50;;;;;;;23.71;42.06;101916.47;5168159;28;20037;-81
2022/08/10 09:54:08;;;;;;;0.75;0.75;;;;;;;23.86;41.86;101914.63;5197411;28;20037;-81
2022/08/10 09:56:52;;;;;;;0.40;0.40;;;;;;;23.92;41.93;101913.38;5210067;28;20124;-81
2022/08/10 09:59:41;;;;;;;0.30;0.30;;;;;;;24.09;40.70;101913.13;5172969;28;20026;-82
2022/08/10 10:02:29;;;;;;;0.85;0.85;;;;;;;24.09;40.52;101907.75;5194079;28;20121;-81
2022/08/10 10:05:23;;;;;;;0.60;0.60;;;;;;;24.15;41.07;101904.69;5202749;28;20025;-81
2022/08/10 10:08:23;;;;;;;0.35;0.35;;;;;;;24.21;40.17;101898.09;5200540;28;20046;-81
2022/08/10 10:11:18;;;;;;;0.30;0.30;;;;;;;24.24;39.54;101892.50;5193953;28;20037;-81
2022/08/10 10:14:31;;;;;;;0.20;0.20;;;;;;;24.29;40.09;101889.50;5180281;28;20064;-81
2022/08/10 10:17:16;;;;;;;0.55;0.55;;;;;;;24.35;40.60;101881.91;5175600;28;20057;-81
2022/08/10 10:20:01;;;;;;;0.57;0.57;;;;;;;24.47;39.87;101880.22;5181836;28;20038;-81
2022/08/10 10:23:03;;;;;;;1.17;1.08;;;;;;;24.56;39.39;101885.94;5161896;28;20042;-81
2022/08/10 10:25:51;;;;;;;0.50;0.50;;;;;;;24.59;39.25;101874.97;5182938;28;20076;-81
2022/08/10 10:29:00;;;;;;;0.57;0.57;;;;;;;24.68;39.32;101874.38;5207250;28;20424;-81
2022/08/10 10:31:41;;;;;;;0.30;0.30;;;;;;;24.71;38.89;101874.16;5179703;28;20038;-81
2022/08/10 10:34:26;;;;;;;0.35;0.35;;;;;;;24.75;39.01;101878.34;5191790;28;20042;-81
2022/08/10 10:37:00;;;;;;;0.50;0.50;;;;;;;24.83;39.20;101870.63;5180803;28;20091;-81
2022/08/10 10:39:33;;;;;;;0.35;0.35;;;;;;;24.91;38.86;101869.25;5167773;28;20073;-81
2022/08/10 10:42:44;;;;;;;1.25;0.80;;;;;;;25.10;38.63;101864.28;5190496;28;20041;-81
2022/08/10 10:45:24;;;;;;;0.40;0.40;;;;;;;25.09;39.32;101856.34;5176610;28;20049;-81
2022/08/10 10:48:17;;;;;;;0.30;0.30;;;;;;;25.20;39.12;101852.88;5181346;28;20465;-81
2022/08/10 10:51:06;;;;;;;0.35;0.35;;;;;;;25.29;38.63;101853.06;5180146;28;20041;-81
2022/08/10 10:54:12;;;;;;;3.00;0.65;;;;;;;25.34;38.19;101852.75;5164876;28;20025;-81
2022/08/10 10:57:11;;;;;;;0.30;0.30;;;;;;;25.42;37.49;101845.03;5192704;28;20044;-82
2022/08/10 11:00:06;;;;;;;0.20;0.20;;;;;;;25.51;38.48;101839.94;5209602;28;20040;-81
2022/08/10 11:03:15;;;;;;;0.57;0.57;;;;;;;25.59;37.68;101842.94;5195556;28;20034;-82
2022/08/10 11:05:59;;;;;;;0.35;0.35;;;;;;;25.59;38.50;101838.44;5189274;28;20050;-82
2022/08/10 11:08:35;;;;;;;1.50;1.40;;;;;;;25.68;38.18;101831.50;5162705;28;20045;-81
2022/08/10 11:11:19;;;;;;;0.77;0.60;;;;;;;25.75;37.91;101830.06;5175098;28;20045;-81
2022/08/10 11:14:04;;;;;;;0.30;0.30;;;;;;;25.84;37.97;101833.94;5195234;28;20492;-82
2022/08/10 11:17:03;;;;;;;0.32;0.32;;;;;;;25.87;37.46;101824.78;5172522;28;20045;-82
2022/08/10 11:20:08;;;;;;;1.65;1.15;;;;;;;25.90;37.63;101811.94;5187357;28;20103;-82
2022/08/10 11:22:48;;;;;;;0.43;0.43;;;;;;;26.10;37.68;101820.38;5197069;28;20041;-82
2022/08/10 11:25:28;;;;;;;0.82;0.80;;;;;;;26.18;37.26;101822.47;5207061;28;20425;-82
2022/08/10 11:28:32;;;;;;;0.63;0.63;;;;;;;26.11;37.13;101811.34;5184963;28;20025;-82
2022/08/10 11:31:30;;;;;;;0.20;0.20;;;;;;;26.18;37.75;101809.03;5194962;28;20050;-82
2022/08/10 11:34:11;;;;;;;0.35;0.35;;;;;;;26.27;37.70;101805.63;5170090;28;20040;-81
2022/08/10 11:36:57;;;;;;;0.22;0.22;;;;;;;26.31;37.24;101809.81;5201544;28;20075;-82
2022/08/10 11:40:04;;;;;;;0.30;0.30;;;;;;;26.37;36.83;101805.78;5183153;28;20267;-80
2022/08/10 11:42:48;;;;;;;0.40;0.40;;;;;;;26.46;36.70;101801.53;5221474;28;20134;-79
2022/08/10 11:45:30;;;;;;;2.55;1.10;;;;;;;26.52;37.07;101788.47;5203174;28;20048;-79
2022/08/10 11:48:16;;;;;;;1.77;0.90;;;;;;;26.65;36.92;101787.47;5210482;28;20169;-79
2022/08/10 11:51:00;;;;;;;0.40;0.40;;;;;;;26.71;36.94;101793.25;5210506;28;20486;-80
2022/08/10 11:53:36;;;;;;;0.38;0.38;;;;;;;26.85;36.40;101783.22;5212116;28;20028;-79
2022/08/10 11:56:15;;;;;;;0.50;0.50;;;;;;;26.86;35.79;101779.56;5198466;28;20037;-79
2022/08/10 12:01:36;;;;;;;0.30;0.30;;;;;;;27.09;35.16;101779.53;5195441;28;20241;-81
2022/08/10 12:04:11;;;;;;;1.70;0.65;;;;;;;27.13;35.59;101772.94;5180561;28;20038;-80
2022/08/10 12:06:45;;;;;;;1.00;0.68;;;;;;;27.21;36.03;101767.78;5161413;28;20437;-80
2022/08/10 12:09:17;;;;;;;0.40;0.40;;;;;;;27.29;36.61;101770.72;5195451;28;20037;-80
2022/08/10 12:11:49;;;;;;;0.60;0.60;;;;;;;27.38;34.86;101765.53;5162095;28;20109;-79
2022/08/10 12:14:39;;;;;;;0.38;0.38;;;;;;;27.51;34.19;101763.56;5169414;28;20039;-79
2022/08/10 12:17:32;;;;;;;0.52;0.52;;;;;;;27.52;34.95;101765.28;5183710;28;20138;-80
2022/08/10 12:20:09;;;;;;;0.20;0.20;;;;;;;27.65;35.13;101762.41;5204337;28;20040;-81
2022/08/10 12:22:48;;;;;;;0.65;0.65;;;;;;;27.86;35.04;101761.56;5184881;28;20030;-82
2022/08/10 12:25:35;;;;;;;0.40;0.40;;;;;;;27.80;34.41;101746.81;5188256;28;20055;-82